Alton, Maine
Current Conditions -  °F | °C
As of 9:53 PM on Wednesday 26 Nov 2014 (Local Time) from KBGR Reporting Station
Moderate Snow Moderate Snow  
Wind Chill: -6°   Ceiling: 500
Heat Index:   Visibility: 0.5mi
Dew Point: -1°   Wind: 18mph
Humidity: 92%   Direction: 20°NNE
Pressure: 29.86"   Gusts: 30mph
Location:  45.0236°N, 68.7394°W
Report Text: KBGR 270253Z 02016G26KT 1/2SM R15/3000V5000FT SN FG VV005 00/M01 A2986 RMK AO2 PK WND 04026/0244 SLP114 P0004 60021 T00001011 58043
Loading
Personal Weather Stations






























Interactive Weather Map New forecast layout! Learn more

10-Day Weather Forecast

Advertisements
Track Severe Weather on mobile